Time;durP1;ratioP1;P1;durP2;ratioP2;P2;SDS_P1;SDS_P2;PMS_P1;PMS_P2;Temp;Humidity;BMP_temperature;BMP_pressure;BME280_temperature;BME280_humidity;BME280_pressure;Samples;Min_cycle;Max_cycle;Signal;HPM_P1;HPM_P2
2021/01/19 00:02:07;;;;;;;12.38;3.67;;;;;;;2.55;56.90;101265.41;5041997;28;20536;-70
2021/01/19 00:04:32;;;;;;;10.95;3.95;;;;;;;2.27;57.72;101268.00;5031034;28;20112;-71
2021/01/19 00:06:58;;;;;;;15.02;3.03;;;;;;;2.54;57.11;101255.97;5053678;28;20039;-70
2021/01/19 00:09:23;;;;;;;11.30;3.10;;;;;;;2.31;57.17;101243.94;5049285;28;20113;-70
2021/01/19 00:11:49;;;;;;;15.38;4.15;;;;;;;2.41;57.08;101249.09;5058672;28;20124;-70
2021/01/19 00:14:14;;;;;;;13.82;3.83;;;;;;;2.04;57.76;101234.47;5028614;28;20071;-70
2021/01/19 00:16:40;;;;;;;12.43;3.50;;;;;;;2.55;56.67;101237.03;5028324;28;20037;-70
2021/01/19 00:19:05;;;;;;;8.18;3.05;;;;;;;2.18;57.84;101229.31;5022934;28;20590;-70
2021/01/19 00:21:31;;;;;;;11.05;3.67;;;;;;;2.16;57.67;101228.44;5009364;28;20757;-70
2021/01/19 00:23:56;;;;;;;12.57;4.30;;;;;;;1.93;58.34;101234.44;5025573;28;20036;-70
2021/01/19 00:26:22;;;;;;;10.48;3.67;;;;;;;2.50;56.71;101215.53;5025121;28;20922;-70
2021/01/19 00:28:47;;;;;;;16.30;3.90;;;;;;;2.60;56.45;101213.78;5028825;28;20737;-70
2021/01/19 00:31:13;;;;;;;12.90;4.30;;;;;;;2.70;55.94;101218.94;5049679;28;20494;-70
2021/01/19 00:33:39;;;;;;;17.77;4.47;;;;;;;1.98;58.38;101226.72;5014095;28;20064;-70
2021/01/19 00:36:04;;;;;;;16.20;4.28;;;;;;;2.52;56.52;101219.84;5043290;28;20052;-70
2021/01/19 00:38:30;;;;;;;16.75;6.78;;;;;;;1.48;60.21;101207.72;5042052;28;20037;-70
2021/01/19 00:40:55;;;;;;;23.85;7.10;;;;;;;1.99;58.73;101199.19;5014709;28;20037;-70
2021/01/19 00:43:21;;;;;;;24.10;7.55;;;;;;;1.71;59.49;101196.59;5028053;28;20024;-71
2021/01/19 00:45:46;;;;;;;20.85;7.57;;;;;;;2.23;57.93;101188.91;5069960;22;20811;-70
2021/01/19 00:48:12;;;;;;;18.83;7.57;;;;;;;2.15;58.36;101185.44;5061765;28;20046;-70
2021/01/19 00:50:38;;;;;;;24.33;10.57;;;;;;;2.28;58.02;101166.53;5067124;28;20120;-70
2021/01/19 00:53:03;;;;;;;21.88;8.90;;;;;;;2.01;58.93;101164.81;5077280;28;20044;-71
2021/01/19 00:55:29;;;;;;;27.88;10.05;;;;;;;2.35;58.01;101165.69;5057759;28;20087;-70
2021/01/19 00:57:55;;;;;;;39.30;11.57;;;;;;;2.51;57.73;101160.47;5066166;28;20111;-70
2021/01/19 01:00:24;;;;;;;32.88;11.30;;;;;;;2.62;57.31;101161.31;5062947;28;20040;-72
2021/01/19 01:02:50;;;;;;;38.33;12.85;;;;;;;2.12;58.66;101145.06;5063386;28;20027;-73
2021/01/19 01:05:16;;;;;;;26.10;10.32;;;;;;;2.44;58.30;101140.72;5063483;28;20043;-71
2021/01/19 01:07:42;;;;;;;27.70;10.43;;;;;;;2.76;57.18;101132.91;5061238;28;20413;-75
2021/01/19 01:10:10;;;;;;;24.48;11.68;;;;;;;2.89;56.96;101123.38;5062714;28;20033;-72
2021/01/19 01:12:36;;;;;;;32.40;11.35;;;;;;;2.77;57.02;101121.72;5063465;28;20048;-72
2021/01/19 01:15:04;;;;;;;30.13;11.40;;;;;;;1.69;59.87;101113.28;5065697;28;20024;-74
2021/01/19 01:17:34;;;;;;;21.83;11.43;;;;;;;2.29;59.18;101111.53;5062429;28;20101;-72
2021/01/19 01:20:00;;;;;;;26.30;11.95;;;;;;;1.95;59.94;101100.38;5069735;28;20108;-71
2021/01/19 01:22:25;;;;;;;31.33;12.65;;;;;;;2.87;57.62;101104.47;5068966;28;20453;-73
2021/01/19 01:24:50;;;;;;;26.88;11.02;;;;;;;2.89;57.47;101100.13;5067415;28;20043;-72
2021/01/19 01:27:16;;;;;;;29.98;11.75;;;;;;;3.02;57.03;101094.06;5070093;28;20527;-72
2021/01/19 01:29:41;;;;;;;25.23;12.27;;;;;;;2.76;58.07;101091.59;5062243;28;20705;-74
2021/01/19 01:32:07;;;;;;;34.42;12.90;;;;;;;2.72;57.81;101083.00;5066533;28;20025;-71
2021/01/19 01:34:32;;;;;;;23.38;12.15;;;;;;;2.69;58.28;101079.56;5067420;28;20043;-75
2021/01/19 01:36:58;;;;;;;28.10;12.38;;;;;;;2.72;57.69;101075.25;5064284;28;20040;-73
2021/01/19 01:39:23;;;;;;;25.92;12.38;;;;;;;3.27;56.05;101073.25;5068653;28;20056;-72
2021/01/19 01:41:49;;;;;;;27.95;12.25;;;;;;;2.86;57.70;101082.09;5085289;28;20086;-73
2021/01/19 01:44:14;;;;;;;29.88;13.00;;;;;;;2.64;58.43;101089.06;5063349;28;20136;-72
2021/01/19 01:46:40;;;;;;;24.48;11.05;;;;;;;3.21;56.53;101065.56;5063041;28;20063;-68
2021/01/19 01:49:05;;;;;;;26.48;11.63;;;;;;;2.50;58.05;101059.00;5066934;28;20489;-71
2021/01/19 01:51:33;;;;;;;34.75;12.45;;;;;;;2.28;59.74;101065.94;5068791;28;20040;-70
2021/01/19 01:54:01;;;;;;;32.78;14.32;;;;;;;1.96;61.03;101047.13;5074602;28;20479;-71
2021/01/19 01:56:27;;;;;;;23.33;12.88;;;;;;;2.98;57.85;101038.16;5076907;28;20032;-73
2021/01/19 01:58:52;;;;;;;26.42;12.18;;;;;;;2.84;58.40;101032.19;5067154;28;20033;-72
2021/01/19 02:01:18;;;;;;;27.58;11.85;;;;;;;2.51;59.58;101034.03;5065654;28;20088;-72
2021/01/19 02:03:43;;;;;;;29.52;12.57;;;;;;;2.51;59.72;101028.88;5067446;28;20123;-71
2021/01/19 02:06:12;;;;;;;38.95;12.73;;;;;;;2.43;60.21;101012.59;5063054;28;20028;-74
2021/01/19 02:09:21;;;;;;;32.90;15.20;;;;;;;2.92;58.71;101005.47;5064543;28;20048;-70
2021/01/19 02:11:56;;;;;;;32.30;12.32;;;;;;;2.71;59.31;100996.13;4987497;28;20077;-70
2021/01/19 02:14:40;;;;;;;28.50;12.88;;;;;;;2.84;59.08;100985.72;5061519;28;20420;-71
2021/01/19 02:17:11;;;;;;;28.10;14.95;;;;;;;2.93;59.11;100975.31;5064352;28;20033;-70
2021/01/19 02:19:52;;;;;;;18.20;9.82;;;;;;;2.56;59.80;100970.41;5063607;28;20032;-70
2021/01/19 02:22:29;;;;;;;26.33;12.35;;;;;;;2.47;60.42;100957.56;5066936;28;20092;-70
2021/01/19 02:25:32;;;;;;;32.80;14.18;;;;;;;3.32;57.71;100957.88;5065601;28;20077;-71
2021/01/19 02:28:09;;;;;;;23.88;12.85;;;;;;;3.17;58.30;100945.91;5062303;28;20493;-71
2021/01/19 02:31:08;;;;;;;30.85;13.75;;;;;;;3.51;57.19;100933.56;5083347;28;20474;-71
2021/01/19 02:34:11;;;;;;;27.30;11.90;;;;;;;3.03;58.52;100935.69;5068306;28;20052;-71
2021/01/19 02:36:57;;;;;;;25.15;12.30;;;;;;;2.04;60.38;100930.22;5058781;28;20065;-71
2021/01/19 02:39:33;;;;;;;23.85;11.85;;;;;;;3.05;58.47;100918.44;5061893;28;20116;-71
2021/01/19 02:42:04;;;;;;;24.27;12.40;;;;;;;3.12;58.18;100914.94;5065366;28;20090;-71
2021/01/19 02:44:31;;;;;;;27.02;12.00;;;;;;;2.92;58.92;100903.91;5062687;28;20039;-71
2021/01/19 02:46:58;;;;;;;22.85;11.73;;;;;;;3.03;58.60;100906.44;5067232;28;20403;-72
2021/01/19 02:49:24;;;;;;;23.50;11.70;;;;;;;3.40;57.14;100894.03;5064882;28;20032;-72
2021/01/19 02:51:51;;;;;;;21.35;11.90;;;;;;;3.25;57.92;100889.88;5065023;28;20024;-71
2021/01/19 02:54:17;;;;;;;25.52;11.98;;;;;;;3.01;58.58;100893.50;5062391;28;20045;-71
2021/01/19 02:57:08;;;;;;;26.50;12.20;;;;;;;2.83;58.54;100889.34;5066429;28;20156;-71
2021/01/19 02:59:40;;;;;;;22.43;11.80;;;;;;;2.31;60.94;100890.56;5066600;28;20031;-71
2021/01/19 03:02:11;;;;;;;25.85;12.00;;;;;;;3.07;58.54;100870.22;5066256;28;20509;-71
2021/01/19 03:04:38;;;;;;;22.50;10.23;;;;;;;2.73;59.73;100880.84;5068497;28;20037;-76
2021/01/19 03:07:08;;;;;;;21.65;11.43;;;;;;;3.41;57.86;100869.94;5065827;28;20033;-75
2021/01/19 03:09:48;;;;;;;26.73;12.82;;;;;;;2.90;59.58;100869.50;5064010;28;20120;-75
2021/01/19 03:12:15;;;;;;;21.75;10.95;;;;;;;3.29;58.19;100855.44;5081278;28;20071;-77
2021/01/19 03:14:43;;;;;;;23.33;12.32;;;;;;;2.91;58.86;100855.72;5064754;28;20040;-75
2021/01/19 03:17:11;;;;;;;22.05;11.73;;;;;;;3.20;58.40;100855.47;5065431;28;20194;-73
2021/01/19 03:19:47;;;;;;;26.85;13.18;;;;;;;2.23;62.09;100848.47;5078426;28;20036;-73
2021/01/19 03:22:14;;;;;;;24.88;12.40;;;;;;;2.27;62.14;100845.00;5063618;28;20404;-74
2021/01/19 03:24:39;;;;;;;27.00;13.45;;;;;;;2.56;61.21;100833.66;5067099;28;20032;-73
2021/01/19 03:27:06;;;;;;;28.52;12.00;;;;;;;3.18;59.29;100836.56;5063989;28;20029;-71
2021/01/19 03:29:32;;;;;;;32.08;13.35;;;;;;;2.19;62.33;100823.56;5062125;28;20532;-72
2021/01/19 03:31:58;;;;;;;25.73;12.73;;;;;;;2.88;59.93;100817.03;5064314;28;20503;-72
2021/01/19 03:34:23;;;;;;;24.50;12.60;;;;;;;2.70;60.71;100806.00;5060509;28;20029;-72
2021/01/19 03:36:49;;;;;;;28.63;12.82;;;;;;;3.26;59.07;100805.47;5065213;28;20106;-73
2021/01/19 03:39:14;;;;;;;30.90;12.82;;;;;;;2.81;60.54;100789.56;5063746;28;20032;-73
2021/01/19 03:41:40;;;;;;;24.73;11.73;;;;;;;2.71;61.06;100788.78;5062863;28;20483;-72
2021/01/19 03:44:06;;;;;;;27.13;10.40;;;;;;;2.89;60.73;100782.59;5062542;28;20093;-72
2021/01/19 03:46:32;;;;;;;26.30;12.40;;;;;;;2.49;61.39;100770.06;5066866;28;20037;-73
2021/01/19 03:48:58;;;;;;;26.20;12.30;;;;;;;2.85;60.57;100765.44;5061706;28;20046;-73
2021/01/19 03:51:24;;;;;;;24.17;11.00;;;;;;;3.31;59.34;100764.97;5061551;28;20036;-74
2021/01/19 03:53:53;;;;;;;28.80;10.88;;;;;;;2.98;60.44;100744.66;5067414;28;20320;-76
2021/01/19 03:56:19;;;;;;;30.38;12.77;;;;;;;2.51;61.81;100743.38;5060022;28;20041;-75
2021/01/19 03:58:45;;;;;;;25.45;11.50;;;;;;;2.75;60.55;100736.25;5068221;28;20032;-76
2021/01/19 04:01:10;;;;;;;24.52;11.35;;;;;;;2.89;60.81;100736.13;5061500;28;20079;-76
2021/01/19 04:03:36;;;;;;;26.92;12.93;;;;;;;2.21;62.76;100725.56;5062452;28;20467;-74
2021/01/19 04:06:04;;;;;;;27.65;13.73;;;;;;;3.28;59.68;100721.06;5061865;28;20060;-75
2021/01/19 04:08:30;;;;;;;23.58;11.50;;;;;;;3.16;60.06;100719.50;5064169;28;20020;-75
2021/01/19 04:10:55;;;;;;;19.85;11.10;;;;;;;3.16;59.76;100711.75;5065750;28;20447;-76
2021/01/19 04:13:21;;;;;;;27.55;12.23;;;;;;;2.97;60.91;100703.34;5063739;28;20471;-76
2021/01/19 04:15:47;;;;;;;28.75;13.40;;;;;;;3.25;59.60;100698.72;5066561;28;20063;-75
2021/01/19 04:18:13;;;;;;;24.20;12.85;;;;;;;3.26;59.24;100695.25;5062539;28;20397;-75
2021/01/19 04:20:38;;;;;;;24.70;12.20;;;;;;;3.11;60.24;100690.25;5068930;28;20063;-74
2021/01/19 04:23:04;;;;;;;26.88;13.15;;;;;;;2.64;61.46;100681.31;5069409;28;20089;-74
2021/01/19 04:25:30;;;;;;;30.90;13.55;;;;;;;2.45;62.26;100678.94;5065953;28;20082;-74
2021/01/19 04:27:56;;;;;;;26.70;14.55;;;;;;;2.21;62.74;100669.69;5062995;28;20544;-74
2021/01/19 04:30:21;;;;;;;36.03;14.80;;;;;;;2.55;61.66;100664.19;5060119;28;20028;-72
2021/01/19 04:32:48;;;;;;;26.60;13.70;;;;;;;3.52;58.83;100656.19;5063622;28;20299;-73
2021/01/19 04:35:14;;;;;;;23.63;12.38;;;;;;;3.22;59.73;100653.97;5064385;28;20152;-75
2021/01/19 04:37:40;;;;;;;23.92;12.88;;;;;;;3.10;60.08;100649.84;5060111;28;20418;-74
2021/01/19 04:40:06;;;;;;;21.85;12.75;;;;;;;2.62;61.15;100629.72;5060005;28;20025;-74
2021/01/19 04:42:34;;;;;;;27.10;12.00;;;;;;;3.05;60.45;100636.13;5064643;28;20044;-78
2021/01/19 04:45:08;;;;;;;21.45;12.13;;;;;;;2.59;60.78;100624.59;5064816;28;20529;-72
2021/01/19 04:47:35;;;;;;;20.58;11.95;;;;;;;2.81;60.31;100608.88;5060173;28;20580;-73
2021/01/19 04:50:09;;;;;;;25.10;11.57;;;;;;;3.13;59.69;100601.56;5063347;28;20056;-75
2021/01/19 04:52:38;;;;;;;22.25;11.25;;;;;;;2.18;62.19;100607.84;5066117;28;20032;-72
2021/01/19 04:55:06;;;;;;;26.33;11.85;;;;;;;2.89;60.56;100595.00;5058464;28;20414;-71
2021/01/19 04:57:37;;;;;;;17.15;8.75;;;;;;;2.82;60.29;100589.94;5063399;28;20029;-72
2021/01/19 05:00:16;;;;;;;17.85;10.13;;;;;;;2.62;60.73;100587.59;5064041;28;20077;-75
2021/01/19 05:03:00;;;;;;;27.02;10.32;;;;;;;2.96;60.05;100578.56;5061995;28;20036;-74
2021/01/19 05:05:35;;;;;;;27.02;9.45;;;;;;;3.01;59.70;100575.91;5075189;28;20473;-74
2021/01/19 05:08:13;;;;;;;19.10;10.15;;;;;;;2.38;61.47;100573.22;5064847;28;20020;-73
2021/01/19 05:10:39;;;;;;;20.55;10.07;;;;;;;2.87;60.32;100567.50;5064297;28;20158;-74
2021/01/19 05:13:09;;;;;;;17.42;8.18;;;;;;;2.71;60.63;100557.38;5060853;28;20044;-74
2021/01/19 05:15:43;;;;;;;13.95;7.45;;;;;;;2.76;60.13;100550.44;5062662;28;20040;-72
2021/01/19 05:18:13;;;;;;;16.40;7.95;;;;;;;2.06;62.24;100551.22;5058253;28;20039;-73
2021/01/19 05:20:47;;;;;;;11.45;6.70;;;;;;;2.39;61.52;100551.75;5062537;28;20046;-74
2021/01/19 05:23:21;;;;;;;13.35;7.00;;;;;;;2.18;61.48;100553.69;5059137;28;20029;-73
2021/01/19 05:25:51;;;;;;;9.60;5.40;;;;;;;2.96;59.67;100539.00;5068093;28;20226;-73
2021/01/19 05:28:16;;;;;;;15.45;6.22;;;;;;;2.31;61.50;100538.91;5060551;28;20115;-74
2021/01/19 05:30:41;;;;;;;13.93;6.68;;;;;;;2.80;60.23;100542.63;5068182;28;20101;-75
2021/01/19 05:33:14;;;;;;;9.02;5.78;;;;;;;2.90;60.44;100539.06;5064764;28;20119;-75
2021/01/19 05:35:39;;;;;;;7.78;5.22;;;;;;;2.28;61.60;100534.66;5063883;28;20565;-75
2021/01/19 05:38:04;;;;;;;9.32;5.05;;;;;;;1.87;63.28;100535.09;5062411;28;20238;-73
2021/01/19 05:40:30;;;;;;;15.15;6.15;;;;;;;2.08;62.05;100532.28;5062380;28;20029;-73
2021/01/19 05:42:56;;;;;;;14.38;4.90;;;;;;;3.04;59.66;100524.22;5063542;28;20032;-73
2021/01/19 05:45:22;;;;;;;11.82;5.25;;;;;;;2.11;61.88;100508.22;5064457;28;20032;-72
2021/01/19 05:47:48;;;;;;;8.13;4.43;;;;;;;2.40;60.78;100515.63;5064540;28;20036;-74
2021/01/19 05:50:14;;;;;;;10.32;4.95;;;;;;;2.11;62.04;100505.63;5067974;28;20562;-75
2021/01/19 05:52:42;;;;;;;15.13;5.15;;;;;;;2.66;60.19;100497.22;5061955;28;20032;-74
2021/01/19 05:55:09;;;;;;;8.25;4.97;;;;;;;3.00;59.57;100503.63;5063690;28;20183;-74
2021/01/19 05:57:34;;;;;;;9.30;4.38;;;;;;;2.15;62.08;100491.81;5065013;28;20040;-73
2021/01/19 06:00:03;;;;;;;10.05;4.40;;;;;;;2.89;59.82;100490.88;5066772;28;20031;-75
2021/01/19 06:02:41;;;;;;;7.07;3.97;;;;;;;3.33;58.65;100489.41;5066820;28;20063;-76
2021/01/19 06:05:12;;;;;;;6.20;3.50;;;;;;;2.26;61.57;100471.91;5070923;28;20031;-74
2021/01/19 06:07:39;;;;;;;13.75;3.78;;;;;;;2.50;60.75;100469.91;5065127;28;20043;-74
2021/01/19 06:10:10;;;;;;;5.57;3.30;;;;;;;2.97;59.74;100460.66;5067478;28;20103;-75
2021/01/19 06:12:35;;;;;;;6.38;1.92;;;;;;;2.27;61.10;100458.16;5065255;28;20040;-74
2021/01/19 06:15:01;;;;;;;4.15;3.00;;;;;;;2.87;59.37;100453.94;5067911;28;20035;-76
2021/01/19 06:17:26;;;;;;;6.55;2.67;;;;;;;1.75;61.85;100438.09;5069884;28;20048;-75
2021/01/19 06:19:57;;;;;;;8.88;3.13;;;;;;;2.57;60.42;100432.84;5066258;28;20036;-74
2021/01/19 06:22:24;;;;;;;4.53;2.33;;;;;;;2.49;60.59;100452.75;5067253;28;20427;-74
2021/01/19 06:24:58;;;;;;;5.70;2.85;;;;;;;2.27;61.14;100442.69;5063762;28;20047;-75
2021/01/19 06:27:23;;;;;;;6.55;2.83;;;;;;;2.77;59.59;100438.56;5066453;28;20451;-72
2021/01/19 06:29:58;;;;;;;3.92;2.65;;;;;;;2.55;60.35;100421.69;5066562;28;20036;-72
2021/01/19 06:32:57;;;;;;;4.75;2.95;;;;;;;2.40;60.71;100406.41;5067832;28;20028;-75
2021/01/19 06:35:23;;;;;;;5.43;3.28;;;;;;;2.07;61.32;100416.31;5004114;28;20072;-71
2021/01/19 06:37:52;;;;;;;5.78;2.47;;;;;;;2.38;60.89;100403.00;5069550;28;20029;-71
2021/01/19 06:40:20;;;;;;;6.18;2.72;;;;;;;1.98;61.90;100398.38;5066207;28;20036;-74
2021/01/19 06:42:58;;;;;;;5.68;2.67;;;;;;;2.03;61.87;100381.13;5068298;28;20028;-75
2021/01/19 06:45:25;;;;;;;6.00;3.13;;;;;;;3.07;58.42;100387.34;5082615;28;20036;-74
2021/01/19 06:47:52;;;;;;;6.32;1.92;;;;;;;2.46;60.67;100375.38;5067152;28;20085;-75
2021/01/19 06:50:19;;;;;;;9.07;2.80;;;;;;;1.84;62.10;100372.72;5077398;28;20507;-74
2021/01/19 06:53:10;;;;;;;5.93;2.15;;;;;;;2.23;61.13;100362.81;5069228;28;20055;-75
2021/01/19 06:55:42;;;;;;;6.25;2.72;;;;;;;1.84;62.52;100355.56;5079191;28;20032;-71
2021/01/19 06:58:21;;;;;;;7.13;2.97;;;;;;;2.82;59.41;100348.16;5060909;28;20066;-72
2021/01/19 07:00:54;;;;;;;4.65;2.05;;;;;;;2.32;60.44;100347.19;5066027;28;20036;-72
2021/01/19 07:03:23;;;;;;;3.97;2.22;;;;;;;2.19;61.31;100333.63;5058204;28;20051;-72
2021/01/19 07:05:53;;;;;;;4.57;2.30;;;;;;;2.12;61.23;100342.31;5066475;28;20451;-74
2021/01/19 07:08:19;;;;;;;6.18;2.20;;;;;;;2.59;59.69;100335.63;5063412;28;20037;-73
2021/01/19 07:11:11;;;;;;;4.05;1.88;;;;;;;2.53;60.34;100330.53;5064910;28;20466;-73
2021/01/19 07:13:37;;;;;;;;;;;;;;;2.80;59.62;100313.81;5070208;28;20131;-74
2021/01/19 07:16:05;;;;;;;4.65;2.42;;;;;;;1.88;62.27;100309.97;5065106;28;20021;-73
2021/01/19 07:19:13;;;;;;;4.70;2.15;;;;;;;2.44;60.49;100310.06;5069344;28;20168;-73
2021/01/19 07:22:04;;;;;;;8.57;2.35;;;;;;;2.55;60.21;100298.72;5033038;28;20087;-72
2021/01/19 07:24:41;;;;;;;5.07;1.83;;;;;;;2.66;60.05;100295.94;5061086;28;20401;-76
2021/01/19 07:27:08;;;;;;;3.00;1.38;;;;;;;2.28;61.08;100284.50;5066427;28;20034;-75
2021/01/19 07:29:34;;;;;;;7.68;1.67;;;;;;;2.50;60.35;100284.16;5074594;28;20497;-74
2021/01/19 07:32:14;;;;;;;4.28;1.77;;;;;;;2.52;60.60;100287.59;5066547;28;20081;-74
2021/01/19 07:34:40;;;;;;;3.53;1.80;;;;;;;3.05;58.44;100266.91;5066568;28;20079;-75
2021/01/19 07:37:06;;;;;;;5.05;1.95;;;;;;;3.00;58.86;100269.53;5060844;28;20039;-75
2021/01/19 07:39:33;;;;;;;3.05;1.85;;;;;;;2.44;59.95;100261.88;5064632;28;20029;-74
2021/01/19 07:42:11;;;;;;;2.70;2.03;;;;;;;2.59;59.93;100255.63;5067305;28;20029;-72
2021/01/19 07:44:37;;;;;;;6.70;2.15;;;;;;;2.67;60.07;100251.22;5062973;28;20039;-74
2021/01/19 07:47:10;;;;;;;5.50;2.90;;;;;;;2.81;59.44;100253.53;5067152;28;20420;-74
2021/01/19 07:49:35;;;;;;;3.10;1.58;;;;;;;2.02;61.63;100251.38;5063233;28;20560;-75
2021/01/19 07:52:12;;;;;;;5.05;1.83;;;;;;;2.65;60.13;100247.81;5065417;28;20091;-75
2021/01/19 07:54:39;;;;;;;2.65;1.50;;;;;;;2.35;61.06;100237.13;5062738;28;20550;-73
2021/01/19 07:57:12;;;;;;;2.72;1.33;;;;;;;2.41;60.93;100238.75;5064918;28;20086;-73
2021/01/19 07:59:38;;;;;;;2.95;1.45;;;;;;;2.68;60.33;100236.56;5063195;28;20047;-74
2021/01/19 08:02:04;;;;;;;3.03;1.65;;;;;;;2.68;60.25;100242.56;5062715;28;20043;-73
2021/01/19 08:04:37;;;;;;;2.67;2.20;;;;;;;2.22;61.70;100227.88;5067424;28;20033;-73
2021/01/19 08:07:11;;;;;;;3.17;1.90;;;;;;;2.33;61.15;100215.66;5063423;28;20046;-73
2021/01/19 08:09:37;;;;;;;5.90;2.05;;;;;;;2.35;61.53;100213.03;5064527;28;20049;-73
2021/01/19 08:12:08;;;;;;;2.08;1.10;;;;;;;2.69;60.42;100215.91;5061607;28;20139;-71
2021/01/19 08:14:48;;;;;;;3.13;1.85;;;;;;;1.88;62.90;100218.06;5063257;28;20033;-71
2021/01/19 08:17:13;;;;;;;2.97;1.38;;;;;;;2.64;60.89;100204.78;5066114;28;20033;-72
2021/01/19 08:19:44;;;;;;;3.03;1.75;;;;;;;2.81;59.88;100190.75;5066858;28;20542;-71
2021/01/19 08:22:11;;;;;;;2.35;1.67;;;;;;;2.52;60.77;100189.56;5063878;28;20082;-72
2021/01/19 08:24:41;;;;;;;1.65;1.10;;;;;;;2.98;59.74;100183.56;5064479;28;20024;-72
2021/01/19 08:27:06;;;;;;;3.00;1.27;;;;;;;2.94;59.84;100189.66;5065592;28;20084;-73
2021/01/19 08:29:31;;;;;;;2.78;1.65;;;;;;;2.50;61.01;100175.81;5066554;28;20127;-72
2021/01/19 08:31:59;;;;;;;3.05;1.77;;;;;;;2.93;59.80;100172.44;5067434;28;20028;-72
2021/01/19 08:34:26;;;;;;;4.28;1.38;;;;;;;2.90;60.11;100165.63;5062486;28;20082;-72
2021/01/19 08:36:53;;;;;;;2.63;1.90;;;;;;;2.91;59.84;100156.13;5064756;28;20086;-73
2021/01/19 08:39:19;;;;;;;4.65;1.73;;;;;;;2.48;60.95;100157.78;5064037;28;20032;-72
2021/01/19 08:41:50;;;;;;;4.65;2.45;;;;;;;2.44;61.33;100157.88;5062108;28;20021;-72
2021/01/19 08:44:16;;;;;;;3.15;1.23;;;;;;;3.16;59.11;100152.19;5063989;28;20024;-72
2021/01/19 08:46:43;;;;;;;2.92;1.80;;;;;;;2.27;62.35;100133.25;5064406;28;20043;-72
2021/01/19 08:49:11;;;;;;;2.22;1.40;;;;;;;2.73;60.71;100136.69;5065321;28;20040;-72
2021/01/19 08:51:41;;;;;;;2.83;2.13;;;;;;;2.53;61.50;100135.34;5061679;28;20075;-72
2021/01/19 08:54:08;;;;;;;2.55;1.52;;;;;;;2.73;61.08;100132.41;5062778;28;20024;-73
2021/01/19 08:56:38;;;;;;;2.75;1.35;;;;;;;3.04;60.35;100126.59;5063967;28;20116;-71
2021/01/19 08:59:03;;;;;;;3.03;2.05;;;;;;;2.63;61.68;100117.97;5065808;28;20043;-72
2021/01/19 09:01:29;;;;;;;2.72;1.02;;;;;;;2.28;62.60;100119.44;5063231;28;20404;-72
2021/01/19 09:04:02;;;;;;;5.10;2.03;;;;;;;2.45;62.27;100123.47;5060841;28;20473;-72
2021/01/19 09:06:28;;;;;;;2.92;1.77;;;;;;;2.37;62.48;100102.97;5063017;28;20394;-71
2021/01/19 09:08:56;;;;;;;2.95;2.22;;;;;;;2.05;63.49;100096.66;5061741;28;20033;-72
2021/01/19 09:11:32;;;;;;;4.15;1.58;;;;;;;2.53;61.83;100098.38;5059966;28;20036;-72
2021/01/19 09:14:09;;;;;;;1.70;1.35;;;;;;;2.88;61.21;100102.00;5059178;28;20039;-71
2021/01/19 09:16:38;;;;;;;3.33;1.17;;;;;;;2.14;63.19;100099.06;5064483;28;20530;-73
2021/01/19 09:19:07;;;;;;;3.97;2.00;;;;;;;3.04;60.88;100095.63;5060871;28;20024;-72
2021/01/19 09:21:33;;;;;;;3.28;2.28;;;;;;;2.42;62.85;100080.53;5056356;28;20409;-75
2021/01/19 09:23:59;;;;;;;2.13;1.35;;;;;;;2.45;62.60;100089.94;5060878;28;20036;-71
2021/01/19 09:26:25;;;;;;;5.35;2.03;;;;;;;3.14;60.73;100086.81;5059356;28;20233;-71
2021/01/19 09:28:52;;;;;;;2.10;1.58;;;;;;;3.36;60.39;100081.22;5061370;28;20119;-72
2021/01/19 09:31:19;;;;;;;2.20;1.35;;;;;;;3.40;59.97;100072.47;5060089;28;20036;-72
2021/01/19 09:33:51;;;;;;;2.30;1.80;;;;;;;3.53;59.55;100066.16;5061249;28;20052;-72
2021/01/19 09:36:17;;;;;;;;;;;;;;;2.49;62.31;100070.97;5079378;28;20079;-72
2021/01/19 09:38:46;;;;;;;3.60;1.25;;;;;;;2.66;62.48;100068.03;5066964;28;20372;-71
2021/01/19 09:41:17;;;;;;;2.85;1.80;;;;;;;2.80;61.99;100063.47;5061817;28;20393;-73
2021/01/19 09:43:49;;;;;;;2.08;1.40;;;;;;;3.38;60.63;100063.91;5081338;28;20508;-72
2021/01/19 09:46:15;;;;;;;2.15;1.20;;;;;;;2.89;62.15;100063.25;5062616;28;20564;-73
2021/01/19 09:48:41;;;;;;;3.30;2.60;;;;;;;3.34;60.51;100059.72;5067108;28;20036;-72
2021/01/19 09:51:07;;;;;;;3.70;1.48;;;;;;;3.11;61.17;100045.56;5062571;28;20028;-72
2021/01/19 09:53:33;;;;;;;2.53;1.70;;;;;;;3.12;61.63;100057.59;5061882;28;20413;-72
2021/01/19 09:56:15;;;;;;;1.85;1.48;;;;;;;3.34;60.76;100042.50;5064910;28;20032;-72
2021/01/19 09:58:41;;;;;;;2.33;1.15;;;;;;;3.29;60.59;100048.63;5066598;28;20039;-72
2021/01/19 10:01:07;;;;;;;2.35;1.55;;;;;;;3.21;61.09;100046.22;5066559;28;20029;-72
2021/01/19 10:03:36;;;;;;;2.30;1.38;;;;;;;3.02;61.38;100035.44;5061954;28;20033;-75
2021/01/19 10:06:03;;;;;;;2.38;1.50;;;;;;;3.18;61.14;100057.47;5064332;28;20389;-72
2021/01/19 10:08:29;;;;;;;2.30;1.58;;;;;;;3.09;61.62;100033.56;5062376;28;20029;-73
2021/01/19 10:10:55;;;;;;;2.65;1.55;;;;;;;3.01;61.21;100028.56;5066701;28;20488;-73
2021/01/19 10:13:32;;;;;;;2.45;1.70;;;;;;;3.16;61.41;100043.72;5062770;28;20121;-72
2021/01/19 10:16:02;;;;;;;1.85;1.48;;;;;;;3.41;60.35;100038.03;5065201;28;20177;-71
2021/01/19 10:18:29;;;;;;;1.77;1.15;;;;;;;2.75;62.32;100032.56;5061986;28;20037;-73
2021/01/19 10:20:54;;;;;;;1.85;1.00;;;;;;;3.46;60.41;100038.75;5069084;28;20035;-72
2021/01/19 10:23:28;;;;;;;1.73;1.35;;;;;;;3.84;59.30;100021.47;5064128;28;20032;-73
2021/01/19 10:26:04;;;;;;;1.67;0.90;;;;;;;3.34;61.00;100021.00;5080200;28;20034;-71
2021/01/19 10:28:37;;;;;;;4.60;1.63;;;;;;;3.84;59.54;100011.13;5063375;28;20056;-72
2021/01/19 10:31:14;;;;;;;1.92;1.15;;;;;;;3.78;59.14;100009.56;5060609;28;20029;-71
2021/01/19 10:34:03;;;;;;;2.55;1.63;;;;;;;3.06;61.63;99998.34;5045517;28;20072;-71
2021/01/19 10:36:31;;;;;;;3.20;1.65;;;;;;;4.07;58.61;100007.09;5062889;28;20028;-71
2021/01/19 10:39:06;;;;;;;2.38;1.60;;;;;;;3.00;61.95;100001.03;5066931;28;20028;-71
2021/01/19 10:41:32;;;;;;;4.50;1.55;;;;;;;3.69;60.16;100001.16;5064308;28;20395;-72
2021/01/19 10:43:58;;;;;;;2.53;1.27;;;;;;;3.53;60.23;99995.53;5058846;28;20037;-73
2021/01/19 10:46:26;;;;;;;3.42;1.45;;;;;;;4.06;59.33;100002.81;5059845;28;20161;-71
2021/01/19 10:49:19;;;;;;;2.42;1.38;;;;;;;3.93;59.19;99992.78;5064788;28;21050;-74
2021/01/19 10:51:49;;;;;;;2.28;1.52;;;;;;;3.77;59.91;99999.25;5059118;28;20244;-72
2021/01/19 10:54:16;;;;;;;2.50;1.50;;;;;;;3.61;60.57;99991.03;5064135;28;20098;-72
2021/01/19 10:56:44;;;;;;;2.03;1.38;;;;;;;3.43;61.73;99989.75;5061977;28;20053;-73
2021/01/19 10:59:11;;;;;;;2.20;1.25;;;;;;;3.66;60.90;99990.94;5062295;28;20043;-71
2021/01/19 11:01:37;;;;;;;2.63;1.42;;;;;;;3.97;59.95;99991.81;5061196;28;20043;-71
2021/01/19 11:04:04;;;;;;;2.40;1.80;;;;;;;3.47;61.33;99985.34;5061978;28;20390;-72
2021/01/19 11:06:31;;;;;;;1.98;0.98;;;;;;;3.32;62.04;99978.84;5065419;28;20032;-72
2021/01/19 11:08:57;;;;;;;1.77;1.10;;;;;;;3.91;60.20;99983.38;5062934;28;20028;-73
2021/01/19 11:11:23;;;;;;;1.75;1.08;;;;;;;4.01;59.66;99983.09;5061738;28;20037;-72
2021/01/19 11:13:48;;;;;;;2.20;1.20;;;;;;;3.44;61.61;99975.94;5061880;28;20550;-70
2021/01/19 11:16:14;;;;;;;1.73;1.33;;;;;;;4.14;59.92;99969.81;5064369;28;20070;-73
2021/01/19 11:18:40;;;;;;;2.00;1.15;;;;;;;3.67;61.16;99977.09;5048192;28;20044;-71
2021/01/19 11:21:05;;;;;;;2.15;1.30;;;;;;;3.90;60.62;99968.75;5060994;28;20074;-72
2021/01/19 11:23:32;;;;;;;2.10;1.52;;;;;;;3.25;62.82;99969.50;5063585;28;20290;-72
2021/01/19 11:25:58;;;;;;;2.70;1.45;;;;;;;4.32;59.35;99966.72;5065956;28;20031;-73
2021/01/19 11:28:24;;;;;;;1.95;1.10;;;;;;;4.59;58.69;99965.06;5065099;28;20036;-75
2021/01/19 11:30:51;;;;;;;1.98;1.55;;;;;;;3.64;61.48;99956.53;5062856;28;20094;-72
2021/01/19 11:33:17;;;;;;;2.22;1.77;;;;;;;4.35;59.55;99964.03;5059451;28;20021;-71
2021/01/19 11:35:43;;;;;;;3.25;1.35;;;;;;;3.78;61.03;99957.00;5063223;28;20490;-69
2021/01/19 11:38:09;;;;;;;3.28;1.38;;;;;;;4.11;59.95;99959.56;5061802;28;20029;-69